Ames, New York
Current Conditions -  °F | °C
As of 9:35 PM on Saturday 25 Oct 2014 (Local Time) from KNY0 Reporting Station
Clear Clear  
Wind Chill: 51°   Ceiling: Unl
Heat Index: 51°   Visibility: 10mi
Dew Point: 46°   Wind: 13mph
Humidity: 82%   Direction: 280°W
Pressure: 29.56"   Gusts: 22mph
Location:  42.8548°N, 74.5942°W
Report Text: KNY0 260135Z AUTO 28011G19KT 10SM CLR 11/08 A2956 RMK AO2 T01060076
Loading
Personal Weather Stations






























Interactive Weather Map
Tropical Storm Tracking
New forecast layout! Learn more

10-Day Weather Forecast

Advertisements
Track Severe Weather on mobile